Time;durP1;ratioP1;P1;durP2;ratioP2;P2;SDS_P1;SDS_P2;PMS_P1;PMS_P2;Temp;Humidity;BMP_temperature;BMP_pressure;BME280_temperature;BME280_humidity;BME280_pressure;Samples;Min_cycle;Max_cycle;Signal;HPM_P1;HPM_P2
2021/05/06 00:32:57;;;;;;;5.70;3.08;;;7.10;77.90;;;;;;5004787;28;20274;-70
2021/05/06 00:35:26;;;;;;;7.50;3.22;;;7.10;78.00;;;;;;5008712;28;20041;-70
2021/05/06 00:40:43;;;;;;;;;;;7.00;78.20;;;;;;5018878;28;20368;-70
2021/05/06 00:54:24;;;;;;;8.80;4.00;;;6.80;78.80;;;;;;5016642;28;20067;-71
2021/05/06 00:59:34;;;;;;;7.95;3.95;;;6.60;79.30;;;;;;5016657;28;20116;-70
2021/05/06 01:12:37;;;;;;;8.00;4.05;;;6.60;80.20;;;;;;5016350;28;20033;-73
2021/05/06 01:15:04;;;;;;;10.27;4.68;;;6.70;80.20;;;;;;5026554;28;20103;-70
2021/05/06 01:17:29;;;;;;;9.32;5.30;;;6.80;80.10;;;;;;5022629;28;20052;-70
2021/05/06 01:19:55;;;;;;;9.93;4.78;;;6.80;80.00;;;;;;5025984;28;20033;-71
2021/05/06 01:22:21;;;;;;;10.23;4.57;;;6.90;79.70;;;;;;5025554;28;20043;-71
2021/05/06 01:24:55;;;;;;;10.68;5.20;;;7.00;79.40;;;;;;5009876;28;20108;-74
2021/05/06 01:27:32;;;;;;;10.48;5.05;;;7.00;79.40;;;;;;5022478;28;20560;-74
2021/05/06 01:32:52;;;;;;;9.68;4.43;;;7.00;79.20;;;;;;5002873;28;20062;-70
2021/05/06 01:35:25;;;;;;;9.15;4.93;;;7.10;79.20;;;;;;5019673;28;20037;-74
2021/05/06 01:40:38;;;;;;;12.43;5.22;;;7.10;79.10;;;;;;5020003;28;20704;-70
2021/05/06 01:43:11;;;;;;;8.93;5.03;;;7.10;79.10;;;;;;5004069;28;20625;-72
2021/05/06 01:58:38;;;;;;;11.40;4.70;;;6.80;79.60;;;;;;5023766;28;20132;-72
2021/05/06 02:01:06;;;;;;;14.60;5.85;;;6.80;79.90;;;;;;5021645;28;20483;-72
2021/05/06 02:03:33;;;;;;;8.88;4.70;;;6.80;80.10;;;;;;5014080;28;20108;-72
2021/05/06 02:05:59;;;;;;;9.50;5.18;;;6.80;80.00;;;;;;5018730;28;20521;-72
2021/05/06 02:08:25;;;;;;;12.32;5.72;;;6.70;80.00;;;;;;5020997;28;20095;-73
2021/05/06 02:10:55;;;;;;;10.70;5.75;;;6.70;80.20;;;;;;5025267;28;20500;-71
2021/05/06 02:13:21;;;;;;;9.38;5.20;;;6.60;80.20;;;;;;5022194;28;20033;-70
2021/05/06 02:15:53;;;;;;;9.38;5.38;;;6.60;80.50;;;;;;5025927;28;20163;-73
2021/05/06 02:18:19;;;;;;;9.95;5.40;;;6.60;80.40;;;;;;5021615;28;20056;-71
2021/05/06 02:20:46;;;;;;;11.73;5.47;;;6.50;80.40;;;;;;5019806;28;20045;-70
2021/05/06 02:23:12;;;;;;;9.23;5.10;;;6.50;80.60;;;;;;5024438;28;20033;-71
2021/05/06 02:25:38;;;;;;;13.85;6.05;;;6.50;80.80;;;;;;5026640;28;20084;-71
2021/05/06 02:28:04;;;;;;;10.93;5.10;;;6.50;80.80;;;;;;5020590;28;20025;-70
2021/05/06 02:30:30;;;;;;;9.50;4.95;;;6.50;80.90;;;;;;5020849;28;20037;-75
2021/05/06 02:32:55;;;;;;;8.68;4.97;;;6.40;81.10;;;;;;5017452;28;20025;-70
2021/05/06 02:35:21;;;;;;;11.40;5.50;;;6.40;81.00;;;;;;5002654;28;20396;-71
2021/05/06 02:37:46;;;;;;;11.32;5.75;;;6.40;81.10;;;;;;5019371;28;20125;-70
2021/05/06 02:40:13;;;;;;;9.70;5.10;;;6.30;81.30;;;;;;5014808;28;20057;-69
2021/05/06 02:42:38;;;;;;;9.30;5.30;;;6.30;81.30;;;;;;5017846;28;20346;-73
2021/05/06 02:45:06;;;;;;;11.27;4.88;;;6.30;81.40;;;;;;5027643;28;20037;-70
2021/05/06 02:47:32;;;;;;;12.10;5.47;;;6.30;81.30;;;;;;5007839;28;20030;-70
2021/05/06 02:49:58;;;;;;;10.52;5.38;;;6.30;81.30;;;;;;5000432;28;20091;-75
2021/05/06 02:55:11;;;;;;;13.80;6.15;;;6.20;81.50;;;;;;5009425;28;20045;-72
2021/05/06 03:03:13;;;;;;;13.60;7.40;;;6.10;81.60;;;;;;5018093;28;20547;-71
2021/05/06 03:05:40;;;;;;;11.43;6.25;;;6.10;81.70;;;;;;5025242;28;20068;-70
2021/05/06 03:08:16;;;;;;;9.18;5.22;;;6.00;82.00;;;;;;5019711;28;20032;-71
2021/05/06 03:24:22;;;;;;;12.05;6.05;;;5.80;82.30;;;;;;5015486;28;20030;-72
2021/05/06 03:26:48;;;;;;;12.00;5.88;;;5.80;82.40;;;;;;5008854;28;20025;-72
2021/05/06 03:29:24;;;;;;;13.90;6.40;;;5.80;82.40;;;;;;5022769;28;20053;-70
2021/05/06 03:34:42;;;;;;;12.40;6.82;;;5.80;82.50;;;;;;5016407;28;20025;-70
2021/05/06 04:25:51;;;;;;;12.63;6.78;;;5.60;83.20;;;;;;4992993;28;19910;-70
2021/05/06 04:36:17;;;;;;;13.40;6.40;;;5.60;83.00;;;;;;5005326;28;20037;-71
2021/05/06 04:38:43;;;;;;;12.40;6.03;;;5.60;83.00;;;;;;5009172;28;20066;-72
2021/05/06 04:46:47;;;;;;;10.35;5.90;;;5.70;82.90;;;;;;5017068;28;20147;-71
2021/05/06 04:54:45;;;;;;;10.50;6.07;;;5.90;82.40;;;;;;5013761;28;20064;-71
2021/05/06 05:05:22;;;;;;;10.30;5.60;;;6.20;81.60;;;;;;5017450;28;20095;-69
2021/05/06 05:07:51;;;;;;;13.60;5.70;;;6.30;81.20;;;;;;5022989;28;20416;-71
2021/05/06 05:10:25;;;;;;;11.38;6.00;;;6.40;81.20;;;;;;5013668;28;20053;-73
2021/05/06 05:13:13;;;;;;;10.10;5.10;;;6.50;81.10;;;;;;5014684;28;20041;-70
2021/05/06 05:18:38;;;;;;;12.45;6.10;;;6.70;80.20;;;;;;5015819;28;20689;-72
2021/05/06 05:23:58;;;;;;;10.70;5.50;;;7.00;79.30;;;;;;4998502;28;20389;-71
2021/05/06 05:26:23;;;;;;;11.50;5.53;;;7.10;78.60;;;;;;5010081;28;20309;-71
2021/05/06 05:28:49;;;;;;;11.85;6.50;;;7.10;78.90;;;;;;5020569;28;20053;-70
2021/05/06 05:31:16;;;;;;;9.23;5.38;;;7.10;79.00;;;;;;5020939;28;20047;-71
2021/05/06 05:36:17;;;;;;;11.30;6.57;;;7.20;78.70;;;;;;5010062;28;20099;-68
2021/05/06 05:54:46;;;;;;;11.45;6.65;;;8.40;75.90;;;;;;5002405;28;20418;-69
2021/05/06 05:57:12;;;;;;;15.15;6.70;;;8.50;75.00;;;;;;5005023;28;20030;-69
2021/05/06 05:59:38;;;;;;;13.52;6.22;;;8.40;75.50;;;;;;5012170;28;20052;-65
2021/05/06 06:02:04;;;;;;;13.73;6.15;;;8.40;74.90;;;;;;5031246;28;20368;-69
2021/05/06 06:04:30;;;;;;;13.98;6.38;;;8.50;75.30;;;;;;5026273;28;20108;-65
2021/05/06 06:06:56;;;;;;;11.07;6.65;;;8.50;74.90;;;;;;5026004;28;20108;-67
2021/05/06 06:09:22;;;;;;;14.05;6.90;;;8.50;75.10;;;;;;5019052;28;20037;-67
2021/05/06 06:11:48;;;;;;;15.23;6.57;;;8.60;75.40;;;;;;5023939;28;20060;-70
2021/05/06 06:14:18;;;;;;;13.82;7.18;;;8.60;74.70;;;;;;5023231;28;20034;-68
2021/05/06 06:16:43;;;;;;;13.57;6.10;;;8.70;74.80;;;;;;5023322;28;20030;-66
2021/05/06 06:19:09;;;;;;;11.82;6.72;;;8.80;73.80;;;;;;5007025;28;20056;-71
2021/05/06 06:24:01;;;;;;;12.50;6.75;;;8.90;73.20;;;;;;5023305;28;20187;-67
2021/05/06 06:26:26;;;;;;;10.85;6.68;;;9.00;73.50;;;;;;5022323;28;20388;-65
2021/05/06 06:28:56;;;;;;;13.07;6.40;;;9.00;73.30;;;;;;5015333;28;20753;-68
2021/05/06 06:33:49;;;;;;;12.70;6.97;;;9.10;73.30;;;;;;5005714;28;20022;-67
2021/05/06 06:36:17;;;;;;;9.52;5.95;;;9.30;72.10;;;;;;5005517;28;20014;-68
2021/05/06 06:38:43;;;;;;;11.38;6.22;;;9.40;71.80;;;;;;5018805;28;20052;-67
2021/05/06 06:41:10;;;;;;;12.18;5.72;;;9.40;71.80;;;;;;5016726;28;20065;-70
2021/05/06 06:43:36;;;;;;;12.95;6.10;;;9.60;71.30;;;;;;5015973;28;20034;-68
2021/05/06 06:46:04;;;;;;;10.60;5.68;;;9.90;70.20;;;;;;5021680;28;20520;-69
2021/05/06 06:48:30;;;;;;;9.70;5.38;;;9.90;71.00;;;;;;5022475;28;20034;-66
2021/05/06 06:50:56;;;;;;;11.80;6.60;;;10.00;70.70;;;;;;5022287;28;20119;-66
2021/05/06 06:53:21;;;;;;;10.75;5.90;;;10.10;70.30;;;;;;5020528;28;20049;-66
2021/05/06 06:55:48;;;;;;;10.35;5.28;;;10.00;70.50;;;;;;5023864;28;20378;-69
2021/05/06 06:58:15;;;;;;;11.38;5.70;;;10.00;70.40;;;;;;5025718;28;20029;-66
2021/05/06 07:00:46;;;;;;;10.15;5.75;;;9.90;70.50;;;;;;5022298;28;20069;-65
2021/05/06 07:03:13;;;;;;;10.23;5.70;;;10.00;70.80;;;;;;5023438;28;20369;-68
2021/05/06 07:05:40;;;;;;;16.00;6.00;;;10.20;69.50;;;;;;5004015;28;20041;-66
2021/05/06 07:08:23;;;;;;;10.45;5.90;;;10.40;69.50;;;;;;5018637;28;20056;-66
2021/05/06 07:10:51;;;;;;;10.80;5.30;;;10.60;69.00;;;;;;5016557;28;20493;-69
2021/05/06 07:13:17;;;;;;;11.07;5.47;;;10.90;67.90;;;;;;5008019;28;20060;-66
2021/05/06 07:15:56;;;;;;;13.02;6.05;;;10.90;67.00;;;;;;5001868;28;20461;-68
2021/05/06 07:18:22;;;;;;;9.68;5.10;;;11.00;67.20;;;;;;5014712;28;20371;-67
2021/05/06 07:20:49;;;;;;;10.05;5.00;;;11.00;67.50;;;;;;5020901;28;20017;-66
2021/05/06 07:23:17;;;;;;;11.35;5.47;;;11.10;65.40;;;;;;5020075;28;20036;-66
2021/05/06 07:25:47;;;;;;;11.35;4.45;;;11.10;65.50;;;;;;5020425;28;20500;-69
2021/05/06 07:28:18;;;;;;;9.43;5.00;;;11.20;64.70;;;;;;5020875;28;20037;-66
2021/05/06 07:30:46;;;;;;;10.63;5.63;;;11.20;64.00;;;;;;5022571;28;20518;-66
2021/05/06 07:33:13;;;;;;;14.30;4.93;;;11.10;64.40;;;;;;5020790;28;20368;-67
2021/05/06 07:35:39;;;;;;;11.77;5.00;;;11.00;64.20;;;;;;5003819;28;20029;-69
2021/05/06 07:38:05;;;;;;;9.00;4.93;;;11.00;65.50;;;;;;5017857;28;20120;-67
2021/05/06 07:40:32;;;;;;;10.80;4.80;;;11.20;65.00;;;;;;5017794;28;20473;-68
2021/05/06 07:42:58;;;;;;;10.48;4.80;;;11.30;64.50;;;;;;5015881;28;20039;-66
2021/05/06 07:45:24;;;;;;;8.18;4.53;;;11.50;63.70;;;;;;5015244;28;20365;-67
2021/05/06 07:47:49;;;;;;;14.18;4.75;;;11.80;63.80;;;;;;5024256;28;20033;-68
2021/05/06 07:50:17;;;;;;;8.27;4.35;;;12.00;62.20;;;;;;5020245;28;20033;-67
2021/05/06 07:52:44;;;;;;;8.32;4.05;;;12.10;62.00;;;;;;5000438;28;20053;-66
2021/05/06 07:55:11;;;;;;;6.65;4.00;;;12.10;60.30;;;;;;5010729;28;20079;-66
2021/05/06 07:57:37;;;;;;;9.00;4.90;;;12.10;60.60;;;;;;5022213;28;20320;-66
2021/05/06 08:00:07;;;;;;;8.05;4.40;;;12.40;59.60;;;;;;5014984;28;20051;-68
2021/05/06 08:02:33;;;;;;;10.57;4.07;;;12.70;59.00;;;;;;5020189;28;20484;-71
2021/05/06 08:04:59;;;;;;;9.23;4.18;;;12.80;59.00;;;;;;5005607;28;20048;-65
2021/05/06 08:07:24;;;;;;;11.40;4.60;;;12.90;57.90;;;;;;4999804;28;20026;-69
2021/05/06 08:09:50;;;;;;;9.90;4.20;;;13.00;57.60;;;;;;5001219;28;20046;-68
2021/05/06 08:12:16;;;;;;;9.02;4.10;;;13.20;57.60;;;;;;5013156;28;20069;-67
2021/05/06 08:14:42;;;;;;;9.43;4.22;;;13.50;57.50;;;;;;5025203;28;20029;-70
2021/05/06 08:17:08;;;;;;;9.50;4.38;;;13.90;55.70;;;;;;5017302;28;20052;-67
2021/05/06 08:19:34;;;;;;;10.65;3.90;;;14.10;54.30;;;;;;5022119;28;20089;-66
2021/05/06 08:22:02;;;;;;;7.15;3.92;;;14.20;54.60;;;;;;5013434;28;20521;-67
2021/05/06 08:24:27;;;;;;;8.77;3.50;;;13.80;53.50;;;;;;5020043;28;20033;-66
2021/05/06 08:26:53;;;;;;;7.30;4.18;;;13.80;54.80;;;;;;5013165;28;20033;-68
2021/05/06 08:29:20;;;;;;;12.52;4.15;;;13.60;54.80;;;;;;5000142;28;20068;-68
2021/05/06 08:31:46;;;;;;;9.10;4.38;;;13.50;54.40;;;;;;4999786;28;20567;-66
2021/05/06 08:34:12;;;;;;;10.95;3.90;;;13.30;54.50;;;;;;5008150;28;20025;-70
2021/05/06 08:36:38;;;;;;;8.30;4.03;;;13.20;55.10;;;;;;5016967;28;20021;-67
2021/05/06 08:39:05;;;;;;;6.95;4.15;;;13.40;54.80;;;;;;5015622;28;20396;-67
2021/05/06 08:41:31;;;;;;;9.20;3.97;;;13.70;53.60;;;;;;5021012;28;20449;-67
2021/05/06 08:44:00;;;;;;;9.07;3.75;;;13.90;52.80;;;;;;5016136;28;20120;-66
2021/05/06 08:46:33;;;;;;;7.15;3.80;;;13.80;52.20;;;;;;5015970;28;20048;-70
2021/05/06 08:49:04;;;;;;;6.65;3.50;;;14.10;50.60;;;;;;5018816;28;20038;-69
2021/05/06 08:51:30;;;;;;;8.00;3.53;;;14.50;50.40;;;;;;5008507;28;20038;-68
2021/05/06 08:53:56;;;;;;;9.05;3.83;;;14.40;50.60;;;;;;5017760;28;20028;-75
2021/05/06 08:56:22;;;;;;;7.90;3.13;;;14.40;50.60;;;;;;5018013;28;20030;-69
2021/05/06 08:58:48;;;;;;;8.48;3.13;;;14.50;48.90;;;;;;5002402;28;20033;-68
2021/05/06 09:01:14;;;;;;;7.78;2.97;;;14.60;48.10;;;;;;5000747;28;20030;-67
2021/05/06 09:03:40;;;;;;;8.57;3.47;;;14.80;49.90;;;;;;5017229;28;20037;-70
2021/05/06 09:06:14;;;;;;;6.88;3.35;;;15.10;49.00;;;;;;5017735;28;20092;-67
2021/05/06 09:08:53;;;;;;;6.65;3.13;;;15.20;48.00;;;;;;5017353;28;20040;-67
2021/05/06 09:11:31;;;;;;;4.80;2.80;;;15.50;46.50;;;;;;5021797;28;20045;-68
2021/05/06 09:14:07;;;;;;;6.72;2.85;;;15.40;45.40;;;;;;5020667;28;20700;-66
2021/05/06 09:16:34;;;;;;;6.95;3.15;;;15.60;45.70;;;;;;5013314;28;20083;-67
2021/05/06 09:19:06;;;;;;;7.40;3.15;;;15.40;45.90;;;;;;5003114;28;20096;-69
2021/05/06 09:21:34;;;;;;;6.88;3.60;;;15.20;46.80;;;;;;5022078;28;20525;-67
2021/05/06 09:24:22;;;;;;;7.60;3.25;;;15.00;47.90;;;;;;5015592;28;20329;-66
2021/05/06 09:26:48;;;;;;;7.25;2.90;;;14.80;48.40;;;;;;5019976;28;20489;-67
2021/05/06 09:29:29;;;;;;;8.15;3.22;;;14.40;47.80;;;;;;5010905;28;20069;-69
2021/05/06 09:32:27;;;;;;;6.75;3.00;;;14.10;47.80;;;;;;5022525;28;20076;-66
2021/05/06 09:34:54;;;;;;;6.45;2.70;;;14.00;48.30;;;;;;5004215;28;20105;-69
2021/05/06 09:37:28;;;;;;;6.72;2.92;;;14.10;49.50;;;;;;4998278;28;20038;-69
2021/05/06 09:39:59;;;;;;;8.20;3.20;;;14.10;49.10;;;;;;5021675;28;20171;-67
2021/05/06 09:42:43;;;;;;;4.78;2.42;;;13.80;49.20;;;;;;5014773;28;20060;-66
2021/05/06 09:45:25;;;;;;;6.93;2.67;;;13.80;50.40;;;;;;5004870;28;20061;-67
2021/05/06 09:48:11;;;;;;;6.30;2.88;;;13.60;50.50;;;;;;5002068;28;20037;-71
2021/05/06 09:50:38;;;;;;;7.68;2.90;;;13.30;51.20;;;;;;4999020;28;20485;-70
2021/05/06 09:53:12;;;;;;;7.28;2.75;;;13.10;51.90;;;;;;5004311;28;20103;-69
2021/05/06 09:55:39;;;;;;;7.65;2.83;;;13.20;52.60;;;;;;5010975;28;20038;-67
2021/05/06 09:58:23;;;;;;;6.22;2.75;;;13.50;52.10;;;;;;5000244;28;20045;-67
2021/05/06 10:00:50;;;;;;;8.45;3.08;;;13.80;51.20;;;;;;5024557;28;20080;-67
2021/05/06 10:03:21;;;;;;;8.02;2.90;;;14.10;50.60;;;;;;5024564;28;20060;-66
2021/05/06 10:05:49;;;;;;;5.85;2.25;;;14.50;49.40;;;;;;5021632;28;20028;-68
2021/05/06 10:08:16;;;;;;;6.70;2.42;;;14.60;48.30;;;;;;5004698;28;20292;-69
2021/05/06 10:10:43;;;;;;;5.60;2.45;;;14.60;47.00;;;;;;5004840;28;20046;-68
2021/05/06 10:13:10;;;;;;;7.57;2.90;;;14.60;46.60;;;;;;5018229;28;20366;-71
2021/05/06 10:15:40;;;;;;;7.25;3.50;;;14.90;47.00;;;;;;5024025;28;20053;-68
2021/05/06 10:18:07;;;;;;;6.32;2.90;;;15.10;47.60;;;;;;5023497;28;20088;-66
2021/05/06 10:20:34;;;;;;;8.70;3.00;;;14.80;48.20;;;;;;5029095;28;20106;-70
2021/05/06 10:23:01;;;;;;;6.53;2.58;;;14.90;47.70;;;;;;5017401;28;20046;-68
2021/05/06 10:25:27;;;;;;;7.30;2.85;;;15.10;47.80;;;;;;5000886;28;20072;-67
2021/05/06 10:27:54;;;;;;;6.38;2.75;;;15.20;47.00;;;;;;4996990;28;20042;-69
2021/05/06 10:30:21;;;;;;;7.22;2.80;;;15.30;46.70;;;;;;4999906;28;20097;-67
2021/05/06 10:32:46;;;;;;;6.40;2.20;;;15.40;45.70;;;;;;5002380;28;20481;-67
2021/05/06 10:35:24;;;;;;;8.15;2.85;;;15.60;44.40;;;;;;4997570;28;20042;-69
2021/05/06 10:37:56;;;;;;;8.23;2.90;;;15.70;44.40;;;;;;5009719;28;20353;-67
2021/05/06 10:40:22;;;;;;;6.00;2.80;;;16.10;43.80;;;;;;5020454;28;20073;-66
2021/05/06 10:42:48;;;;;;;7.28;3.00;;;16.30;43.20;;;;;;5006500;28;20434;-68
2021/05/06 10:45:14;;;;;;;6.60;2.67;;;16.40;43.10;;;;;;5001589;28;20038;-71
2021/05/06 10:47:43;;;;;;;6.10;2.72;;;16.20;42.70;;;;;;4996286;28;20451;-68
2021/05/06 10:50:33;;;;;;;6.82;3.10;;;16.20;42.50;;;;;;5012229;28;20042;-67
2021/05/06 10:52:59;;;;;;;7.18;2.65;;;16.20;43.30;;;;;;5015155;28;20107;-67
2021/05/06 10:55:46;;;;;;;7.65;3.00;;;16.10;44.90;;;;;;5014023;28;20471;-68
2021/05/06 10:58:33;;;;;;;7.18;2.65;;;15.80;44.00;;;;;;5016156;28;20242;-70
2021/05/06 11:01:08;;;;;;;6.15;2.72;;;15.40;45.00;;;;;;5015255;28;20385;-67
2021/05/06 11:03:36;;;;;;;7.93;2.83;;;15.40;44.40;;;;;;5015009;28;20044;-67
2021/05/06 11:06:02;;;;;;;6.03;2.63;;;15.30;45.20;;;;;;5010148;28;20486;-68
2021/05/06 11:08:32;;;;;;;8.13;2.78;;;15.40;45.50;;;;;;4996270;28;20060;-68
2021/05/06 11:11:01;;;;;;;7.05;2.92;;;15.50;44.60;;;;;;4999972;28;20039;-67
2021/05/06 11:13:48;;;;;;;8.70;2.60;;;15.20;44.90;;;;;;5019789;28;20053;-67
2021/05/06 11:16:16;;;;;;;9.75;2.72;;;15.30;45.40;;;;;;5021344;28;20065;-68
2021/05/06 11:18:43;;;;;;;9.57;2.90;;;15.30;43.90;;;;;;5019260;28;20041;-66
2021/05/06 11:21:10;;;;;;;9.32;2.67;;;15.00;44.40;;;;;;5019467;28;20067;-67
2021/05/06 11:23:36;;;;;;;6.07;2.35;;;15.50;45.50;;;;;;5017677;28;20106;-68
2021/05/06 11:26:08;;;;;;;8.07;2.80;;;15.80;42.60;;;;;;5016746;28;20033;-68
2021/05/06 11:28:33;;;;;;;7.55;2.47;;;16.20;43.70;;;;;;5009820;28;20125;-68
2021/05/06 11:30:59;;;;;;;8.38;2.60;;;16.60;43.10;;;;;;5020244;28;20747;-68
2021/05/06 11:33:27;;;;;;;6.32;2.42;;;16.90;41.70;;;;;;5019685;28;20095;-68
2021/05/06 11:35:59;;;;;;;7.22;2.22;;;17.00;39.70;;;;;;5015826;28;20046;-68
2021/05/06 11:38:41;;;;;;;6.82;2.35;;;17.20;40.10;;;;;;5021397;28;20037;-70
2021/05/06 11:41:17;;;;;;;6.55;2.70;;;17.20;38.00;;;;;;5014807;28;20047;-70
2021/05/06 11:43:49;;;;;;;7.10;2.28;;;16.70;39.40;;;;;;5017850;28;20029;-70
2021/05/06 11:46:22;;;;;;;5.65;2.40;;;16.60;38.70;;;;;;5030561;28;20029;-68
2021/05/06 11:48:51;;;;;;;6.07;2.58;;;16.40;38.80;;;;;;5021146;28;20065;-68
2021/05/06 11:51:42;;;;;;;7.95;2.78;;;16.20;39.80;;;;;;5018996;28;20037;-68
2021/05/06 11:54:10;;;;;;;6.68;2.75;;;16.20;40.40;;;;;;5015291;28;20026;-68
2021/05/06 11:56:42;;;;;;;8.07;2.83;;;16.20;40.60;;;;;;5018065;28;20448;-67
2021/05/06 11:59:13;;;;;;;6.47;2.70;;;16.30;41.20;;;;;;5010922;28;20033;-68
2021/05/06 12:01:39;;;;;;;6.97;2.50;;;16.30;41.40;;;;;;5019521;28;20030;-67
2021/05/06 12:04:05;;;;;;;7.35;2.90;;;16.60;41.50;;;;;;5017344;28;20100;-67
2021/05/06 12:06:35;;;;;;;7.45;2.70;;;16.40;40.90;;;;;;5015724;28;20041;-67
2021/05/06 12:09:07;;;;;;;9.68;2.85;;;16.40;41.00;;;;;;5003483;28;20040;-68
2021/05/06 12:11:39;;;;;;;7.78;2.50;;;16.30;41.20;;;;;;4992427;28;20481;-67
2021/05/06 12:14:09;;;;;;;7.90;2.55;;;16.30;41.20;;;;;;4998383;28;20509;-69
2021/05/06 12:16:36;;;;;;;5.57;2.53;;;16.30;38.90;;;;;;4995538;28;20037;-69
2021/05/06 12:19:06;;;;;;;6.10;2.30;;;16.20;39.80;;;;;;5009641;28;20558;-70
2021/05/06 12:21:51;;;;;;;6.63;2.65;;;16.20;40.40;;;;;;5019405;28;20044;-70
2021/05/06 12:24:31;;;;;;;6.43;2.42;;;16.00;40.70;;;;;;5017939;28;20041;-70
2021/05/06 12:27:16;;;;;;;11.10;2.38;;;16.00;40.80;;;;;;4996802;28;20095;-69
2021/05/06 12:29:42;;;;;;;9.48;2.70;;;15.90;41.50;;;;;;5020819;28;20053;-68
2021/05/06 12:32:19;;;;;;;5.97;2.10;;;15.90;40.70;;;;;;5018637;28;20030;-70
2021/05/06 12:34:45;;;;;;;6.53;2.50;;;15.90;40.20;;;;;;5019089;28;20057;-70
2021/05/06 12:37:11;;;;;;;6.97;2.45;;;15.80;41.30;;;;;;5018997;28;20053;-69
2021/05/06 12:39:39;;;;;;;9.27;3.13;;;15.80;44.50;;;;;;5021270;28;20044;-67
2021/05/06 12:42:05;;;;;;;11.10;3.13;;;15.60;46.40;;;;;;5011633;28;20038;-69
2021/05/06 12:44:47;;;;;;;6.47;3.20;;;15.40;47.20;;;;;;5017707;28;20037;-67
2021/05/06 12:47:28;;;;;;;7.70;3.10;;;15.40;47.50;;;;;;5016726;28;20080;-67
2021/05/06 12:50:09;;;;;;;10.15;3.50;;;15.30;47.50;;;;;;5019007;28;20033;-68
2021/05/06 12:52:42;;;;;;;9.05;3.25;;;15.10;48.10;;;;;;5013823;28;20061;-68
2021/05/06 12:55:23;;;;;;;8.82;3.17;;;15.20;47.30;;;;;;5011362;28;20030;-67
2021/05/06 12:58:13;;;;;;;7.97;2.80;;;15.40;46.80;;;;;;5030829;28;20482;-68
2021/05/06 13:01:01;;;;;;;8.68;3.20;;;15.60;46.20;;;;;;4999780;28;20038;-67
2021/05/06 13:03:32;;;;;;;8.77;3.20;;;15.60;44.80;;;;;;4997671;28;20043;-67
2021/05/06 13:06:04;;;;;;;7.25;2.95;;;15.50;45.40;;;;;;5014424;28;20040;-69
2021/05/06 13:08:41;;;;;;;9.60;3.30;;;15.50;45.80;;;;;;5008044;28;20045;-67
2021/05/06 13:11:11;;;;;;;14.52;3.55;;;15.40;46.60;;;;;;5016531;28;20067;-68
2021/05/06 13:13:43;;;;;;;6.10;2.72;;;15.10;47.90;;;;;;5025028;28;20083;-67
2021/05/06 13:16:13;;;;;;;7.70;3.40;;;15.10;47.50;;;;;;5019202;28;20511;-67
2021/05/06 13:18:39;;;;;;;11.07;3.67;;;15.10;46.70;;;;;;5023826;28;20053;-67
2021/05/06 13:21:21;;;;;;;7.93;3.58;;;15.30;47.60;;;;;;5010691;28;20077;-69
2021/05/06 13:23:47;;;;;;;8.68;3.00;;;15.80;45.60;;;;;;5018436;28;20064;-69
2021/05/06 13:26:14;;;;;;;9.75;3.67;;;15.90;45.40;;;;;;5024132;28;20026;-69
2021/05/06 13:28:42;;;;;;;11.48;3.38;;;16.30;44.70;;;;;;5020777;28;20382;-67
2021/05/06 13:31:14;;;;;;;6.82;2.88;;;16.20;43.60;;;;;;5022323;28;20037;-69
2021/05/06 13:33:40;;;;;;;7.75;3.25;;;16.40;44.40;;;;;;5017160;28;20033;-69
2021/05/06 13:36:10;;;;;;;9.80;3.25;;;16.70;44.40;;;;;;5024463;28;20032;-68
2021/05/06 13:38:59;;;;;;;8.75;3.10;;;17.00;42.60;;;;;;5024595;28;20034;-68
2021/05/06 13:41:31;;;;;;;9.98;3.25;;;17.20;42.10;;;;;;5024411;28;20069;-69
2021/05/06 13:43:59;;;;;;;9.00;3.10;;;17.30;41.40;;;;;;5002334;28;20121;-69
2021/05/06 13:46:26;;;;;;;7.97;3.33;;;17.10;41.30;;;;;;5009865;28;20046;-70
2021/05/06 13:48:53;;;;;;;8.57;3.28;;;17.00;42.20;;;;;;5000925;28;20030;-68
2021/05/06 13:51:21;;;;;;;7.38;2.80;;;16.90;42.30;;;;;;5003973;28;20069;-68
2021/05/06 13:53:48;;;;;;;6.78;2.90;;;16.60;41.60;;;;;;5002753;28;20034;-71
2021/05/06 13:56:14;;;;;;;10.57;3.13;;;16.30;42.10;;;;;;4995046;28;20038;-67
2021/05/06 13:58:40;;;;;;;6.53;2.88;;;16.30;42.30;;;;;;5014586;28;20501;-66
2021/05/06 14:01:08;;;;;;;7.85;2.75;;;16.30;41.80;;;;;;5022749;28;20030;-68
2021/05/06 14:03:34;;;;;;;7.63;2.88;;;16.50;42.20;;;;;;5023818;28;20400;-66
2021/05/06 14:06:00;;;;;;;7.80;2.75;;;16.40;40.60;;;;;;5026110;28;20037;-67
2021/05/06 14:08:27;;;;;;;10.10;4.65;;;15.70;41.50;;;;;;5000886;28;20026;-68
2021/05/06 14:10:53;;;;;;;10.98;6.22;;;15.10;48.60;;;;;;5004378;28;20506;-66
2021/05/06 14:13:18;;;;;;;8.15;5.25;;;13.70;52.50;;;;;;4996813;28;20045;-65
2021/05/06 14:15:45;;;;;;;10.05;5.63;;;12.80;55.30;;;;;;5001171;28;20069;-67
2021/05/06 14:18:11;;;;;;;9.25;5.75;;;12.70;56.80;;;;;;5018748;28;20030;-67
2021/05/06 14:20:38;;;;;;;11.10;5.70;;;12.40;57.90;;;;;;5024111;28;20083;-69
2021/05/06 14:23:07;;;;;;;11.15;6.30;;;12.20;58.20;;;;;;5029060;28;20067;-68
2021/05/06 14:25:33;;;;;;;10.70;6.32;;;11.80;59.50;;;;;;5007611;28;20053;-66
2021/05/06 14:27:59;;;;;;;10.10;6.68;;;11.80;60.00;;;;;;5000341;28;20057;-70
2021/05/06 14:30:25;;;;;;;10.98;7.22;;;11.60;60.40;;;;;;5020469;28;20088;-68
2021/05/06 14:32:51;;;;;;;12.63;9.00;;;11.10;61.90;;;;;;5016304;28;20034;-67
2021/05/06 14:35:16;;;;;;;10.27;7.53;;;11.00;64.10;;;;;;5011164;28;20044;-70
2021/05/06 14:37:42;;;;;;;13.48;8.90;;;11.10;63.90;;;;;;5015580;28;20045;-67
2021/05/06 14:40:08;;;;;;;10.73;7.60;;;10.90;65.90;;;;;;5022722;28;20037;-66
2021/05/06 14:42:34;;;;;;;12.57;8.90;;;10.70;67.10;;;;;;5016531;28;20404;-66
2021/05/06 14:45:01;;;;;;;9.77;7.30;;;10.60;68.60;;;;;;5012018;28;20401;-66
2021/05/06 14:47:27;;;;;;;10.80;8.07;;;10.60;68.30;;;;;;5014402;28;20043;-70
2021/05/06 14:49:53;;;;;;;10.48;7.95;;;10.40;68.60;;;;;;5023943;28;20037;-66
2021/05/06 14:52:19;;;;;;;9.48;7.18;;;10.40;68.90;;;;;;5021181;28;20045;-66
2021/05/06 14:54:46;;;;;;;11.75;7.82;;;10.20;68.80;;;;;;5022884;28;20108;-70
2021/05/06 14:57:12;;;;;;;11.35;7.88;;;10.10;69.10;;;;;;5020886;28;20045;-66
2021/05/06 14:59:37;;;;;;;10.43;7.20;;;10.20;70.60;;;;;;5022576;28;20056;-66
2021/05/06 15:02:03;;;;;;;11.30;7.38;;;10.10;70.70;;;;;;5024142;28;20140;-69
2021/05/06 15:04:29;;;;;;;10.68;8.02;;;10.10;71.30;;;;;;5019902;28;20133;-66
2021/05/06 15:06:55;;;;;;;11.30;7.57;;;10.10;71.80;;;;;;5022229;28;20056;-73
2021/05/06 15:09:22;;;;;;;12.20;7.35;;;10.10;71.90;;;;;;5023485;28;23236;-73
2021/05/06 15:11:48;;;;;;;9.65;7.28;;;9.90;71.80;;;;;;5016737;28;20046;-68
2021/05/06 15:14:14;;;;;;;10.52;7.60;;;9.70;72.10;;;;;;5022823;28;20034;-70
2021/05/06 15:16:40;;;;;;;10.02;8.05;;;9.70;72.70;;;;;;5024374;28;20035;-67
2021/05/06 15:19:06;;;;;;;11.52;8.38;;;9.60;72.80;;;;;;5021255;28;20496;-67
2021/05/06 15:21:31;;;;;;;11.75;8.73;;;9.70;74.40;;;;;;5023285;28;20038;-70
2021/05/06 15:23:57;;;;;;;11.27;8.30;;;9.60;73.90;;;;;;5023822;28;20765;-67
2021/05/06 15:26:23;;;;;;;12.25;9.43;;;9.50;73.60;;;;;;5021721;28;20049;-71
2021/05/06 15:28:49;;;;;;;11.95;8.80;;;9.50;74.80;;;;;;5022577;28;20045;-66
2021/05/06 15:31:15;;;;;;;11.10;8.13;;;9.40;75.10;;;;;;5022879;28;20077;-66
2021/05/06 15:33:40;;;;;;;11.35;7.90;;;9.30;75.20;;;;;;5021360;28;20057;-71
2021/05/06 15:36:06;;;;;;;11.98;8.43;;;9.30;75.70;;;;;;5021703;28;20520;-68
2021/05/06 15:38:32;;;;;;;10.45;7.72;;;9.40;76.00;;;;;;5025113;28;20473;-72
2021/05/06 15:40:58;;;;;;;13.77;8.02;;;9.40;75.70;;;;;;5020845;28;20037;-69
2021/05/06 15:43:23;;;;;;;10.07;8.10;;;9.30;75.80;;;;;;5008218;28;20072;-66
2021/05/06 15:45:49;;;;;;;10.43;7.93;;;9.20;76.40;;;;;;4990452;28;20067;-72
2021/05/06 15:48:16;;;;;;;10.68;8.20;;;9.20;76.90;;;;;;4997732;28;20537;-66
2021/05/06 15:50:43;;;;;;;11.65;7.55;;;9.20;77.30;;;;;;4989447;28;20046;-67
2021/05/06 15:53:09;;;;;;;12.77;8.65;;;9.10;76.10;;;;;;4993103;28;20121;-71
2021/05/06 15:55:35;;;;;;;13.85;9.32;;;9.10;75.80;;;;;;5015995;28;20573;-67
2021/05/06 15:58:03;;;;;;;14.20;10.45;;;9.10;76.20;;;;;;5018665;28;20037;-68
2021/05/06 16:00:30;;;;;;;13.80;9.13;;;9.10;76.60;;;;;;5007389;28;20087;-67
2021/05/06 16:03:18;;;;;;;11.57;8.10;;;9.10;76.70;;;;;;5024096;28;20060;-67
2021/05/06 16:05:48;;;;;;;11.50;8.45;;;9.10;76.90;;;;;;5026581;28;20580;-70
2021/05/06 16:08:14;;;;;;;11.60;8.35;;;9.10;76.90;;;;;;5021446;28;20509;-69
2021/05/06 16:10:39;;;;;;;12.30;7.75;;;9.20;77.10;;;;;;5015941;28;20148;-69
2021/05/06 16:13:05;;;;;;;15.02;10.05;;;9.30;76.20;;;;;;5020397;28;20049;-69
2021/05/06 16:15:31;;;;;;;15.57;11.35;;;9.20;74.90;;;;;;5012790;28;20094;-68
2021/05/06 16:17:57;;;;;;;13.75;11.57;;;9.30;75.50;;;;;;5018356;28;20030;-71
2021/05/06 16:20:30;;;;;;;15.00;12.38;;;9.50;75.80;;;;;;5017037;28;20042;-66
2021/05/06 16:22:55;;;;;;;13.43;7.95;;;9.50;74.70;;;;;;5022702;28;20030;-66